Time;durP1;ratioP1;P1;durP2;ratioP2;P2;SDS_P1;SDS_P2;PMS_P1;PMS_P2;Temp;Humidity;BMP_temperature;BMP_pressure;BME280_temperature;BME280_humidity;BME280_pressure;Samples;Min_cycle;Max_cycle;Signal;HPM_P1;HPM_P2
2022/03/14 00:02:23;;;;;;;6.05;5.45;;;9.50;99.90;;;;;;4926817;29;20043;-73
2022/03/14 00:04:49;;;;;;;8.25;5.25;;;9.50;99.90;;;;;;4927458;29;20039;-73
2022/03/14 00:07:15;;;;;;;9.02;5.53;;;9.50;99.90;;;;;;4927212;29;20111;-73
2022/03/14 00:09:40;;;;;;;4.88;4.43;;;9.50;99.90;;;;;;4927394;29;20507;-73
2022/03/14 00:12:08;;;;;;;4.53;4.15;;;9.50;99.90;;;;;;4927131;29;20043;-73
2022/03/14 00:14:34;;;;;;;4.97;4.18;;;9.40;99.90;;;;;;4925849;29;20101;-73
2022/03/14 00:17:10;;;;;;;9.88;4.65;;;9.40;99.90;;;;;;4925073;29;20043;-73
2022/03/14 00:19:36;;;;;;;4.90;4.40;;;9.40;99.90;;;;;;4927098;29;20051;-73
2022/03/14 00:22:03;;;;;;;4.10;3.63;;;9.40;99.90;;;;;;4926804;29;20043;-73
2022/03/14 00:24:28;;;;;;;6.75;3.58;;;9.40;99.90;;;;;;4927174;29;20083;-73
2022/03/14 00:26:54;;;;;;;4.72;3.85;;;9.40;99.90;;;;;;4925224;29;20083;-73
2022/03/14 00:29:21;;;;;;;4.63;4.20;;;9.40;99.90;;;;;;4925817;29;20044;-73
2022/03/14 00:31:47;;;;;;;4.63;3.17;;;9.40;99.90;;;;;;4925775;29;20130;-73
2022/03/14 00:34:14;;;;;;;4.72;3.03;;;9.40;99.90;;;;;;4927249;29;20135;-72
2022/03/14 00:36:42;;;;;;;2.15;2.03;;;9.40;99.90;;;;;;4927233;29;20055;-73
2022/03/14 00:39:08;;;;;;;4.90;3.28;;;9.40;99.90;;;;;;4926707;29;20044;-73
2022/03/14 00:41:34;;;;;;;5.03;3.25;;;9.40;99.90;;;;;;4926508;29;20078;-73
2022/03/14 00:43:59;;;;;;;4.60;2.38;;;9.40;99.90;;;;;;4926610;29;20837;-73
2022/03/14 00:46:25;;;;;;;2.63;2.28;;;9.50;99.90;;;;;;4940593;29;20044;-73
2022/03/14 00:48:50;;;;;;;2.55;2.40;;;9.50;99.90;;;;;;4925917;29;20435;-73
2022/03/14 00:51:16;;;;;;;2.72;2.53;;;9.50;99.90;;;;;;4926417;29;20050;-73
2022/03/14 00:53:42;;;;;;;2.78;2.55;;;9.40;99.90;;;;;;4926791;29;20330;-73
2022/03/14 00:56:08;;;;;;;3.25;2.55;;;9.40;99.90;;;;;;4926586;29;20194;-73
2022/03/14 00:58:34;;;;;;;2.97;2.53;;;9.40;99.90;;;;;;4926185;29;20127;-73
2022/03/14 01:01:00;;;;;;;2.05;1.95;;;9.40;99.90;;;;;;4924634;29;20052;-73
2022/03/14 01:03:26;;;;;;;4.53;3.60;;;9.40;99.90;;;;;;4926368;29;20039;-73
2022/03/14 01:05:52;;;;;;;3.00;1.60;;;9.40;99.90;;;;;;4925648;29;20511;-73
2022/03/14 01:08:17;;;;;;;2.13;1.92;;;9.40;99.90;;;;;;4926032;29;20040;-73
2022/03/14 01:10:43;;;;;;;3.75;2.95;;;9.30;99.90;;;;;;4926451;29;20689;-73
2022/03/14 01:13:11;;;;;;;2.28;2.03;;;9.30;99.90;;;;;;4925480;29;20081;-73
2022/03/14 01:15:37;;;;;;;6.03;2.25;;;9.30;99.90;;;;;;4940987;28;20047;-73
2022/03/14 01:18:04;;;;;;;4.40;2.40;;;9.30;99.90;;;;;;4925002;29;20067;-73
2022/03/14 01:20:30;;;;;;;2.95;2.67;;;9.20;99.90;;;;;;4926042;29;20058;-73
2022/03/14 01:22:56;;;;;;;2.35;2.25;;;9.20;99.90;;;;;;4925673;29;20130;-73
2022/03/14 01:25:26;;;;;;;1.80;1.70;;;9.10;99.90;;;;;;4924888;29;20138;-73
2022/03/14 01:27:52;;;;;;;1.75;1.65;;;9.10;99.90;;;;;;4925837;29;20103;-73
2022/03/14 01:30:19;;;;;;;2.20;2.03;;;9.10;99.90;;;;;;4926036;29;20043;-73
2022/03/14 01:32:45;;;;;;;1.88;1.67;;;9.10;99.90;;;;;;4924020;29;20039;-73
2022/03/14 01:35:11;;;;;;;7.10;3.15;;;9.10;99.90;;;;;;4926330;29;20047;-72
2022/03/14 01:37:37;;;;;;;2.78;2.58;;;9.10;99.90;;;;;;4925688;29;20414;-73
2022/03/14 01:40:03;;;;;;;2.72;2.30;;;9.00;99.90;;;;;;4925467;29;20047;-73
2022/03/14 01:42:29;;;;;;;2.67;2.35;;;9.00;99.90;;;;;;4925459;29;20079;-73
2022/03/14 01:44:55;;;;;;;2.80;1.80;;;9.00;99.90;;;;;;4925526;29;20086;-72
2022/03/14 01:47:20;;;;;;;1.92;1.83;;;9.00;99.90;;;;;;4924872;29;20044;-73
2022/03/14 01:49:47;;;;;;;2.47;2.08;;;9.00;99.90;;;;;;4924047;29;20131;-73
2022/03/14 01:52:13;;;;;;;2.45;2.22;;;9.00;99.90;;;;;;4926145;29;20036;-73
2022/03/14 01:54:41;;;;;;;2.45;2.25;;;8.90;99.90;;;;;;4925680;29;20048;-73
2022/03/14 01:57:07;;;;;;;2.67;2.47;;;8.90;99.90;;;;;;4925476;29;20094;-73
2022/03/14 01:59:33;;;;;;;4.03;3.25;;;8.90;99.90;;;;;;4925516;29;20043;-73
2022/03/14 02:02:00;;;;;;;3.22;2.45;;;8.90;99.90;;;;;;4924596;29;20497;-73
2022/03/14 02:04:25;;;;;;;4.95;3.53;;;8.90;99.90;;;;;;4925473;29;20043;-73
2022/03/14 02:06:55;;;;;;;3.13;2.83;;;8.90;99.90;;;;;;4924815;29;20070;-73
2022/03/14 02:09:20;;;;;;;3.13;2.83;;;8.90;99.90;;;;;;4925067;29;20086;-73
2022/03/14 02:12:07;;;;;;;2.05;1.95;;;8.90;99.90;;;;;;4924210;29;20406;-73
2022/03/14 02:14:39;;;;;;;4.28;3.50;;;8.80;99.90;;;;;;4923954;29;20130;-72
2022/03/14 02:17:11;;;;;;;;;;;8.80;99.90;;;;;;4923425;29;20044;-73
2022/03/14 02:19:36;;;;;;;2.63;2.03;;;8.80;99.90;;;;;;4925339;29;19922;-73
2022/03/14 02:22:03;;;;;;;3.75;2.95;;;8.80;99.90;;;;;;4925242;29;20046;-73
2022/03/14 02:24:29;;;;;;;3.70;2.70;;;8.80;99.90;;;;;;4924825;29;20082;-73
2022/03/14 02:26:55;;;;;;;3.55;3.15;;;8.80;99.90;;;;;;4923640;29;20075;-73
2022/03/14 02:29:21;;;;;;;4.93;3.42;;;8.80;99.90;;;;;;4925375;29;20040;-73
2022/03/14 02:31:47;;;;;;;4.13;2.92;;;8.80;99.90;;;;;;4924286;29;20082;-73
2022/03/14 02:34:13;;;;;;;3.97;2.85;;;8.80;99.90;;;;;;4925795;29;20126;-73
2022/03/14 02:36:39;;;;;;;3.92;3.63;;;8.70;99.90;;;;;;4925075;29;20131;-73
2022/03/14 02:39:06;;;;;;;3.63;3.33;;;8.70;99.90;;;;;;4924525;29;20059;-72
2022/03/14 02:41:32;;;;;;;2.90;2.70;;;8.70;99.90;;;;;;4925258;29;20063;-73
2022/03/14 02:43:59;;;;;;;4.97;4.38;;;8.70;99.90;;;;;;4924803;29;20051;-73
2022/03/14 02:46:25;;;;;;;6.53;3.75;;;8.70;99.90;;;;;;4924386;29;20121;-72
2022/03/14 02:48:50;;;;;;;3.47;3.17;;;8.70;99.90;;;;;;4924929;29;20159;-73
2022/03/14 02:51:16;;;;;;;6.50;2.97;;;8.70;99.90;;;;;;4924953;29;20048;-73
2022/03/14 02:53:42;;;;;;;3.33;3.03;;;8.70;99.90;;;;;;4925438;29;20043;-73
2022/03/14 02:56:07;;;;;;;2.67;2.53;;;8.70;99.90;;;;;;4955589;28;20059;-73
2022/03/14 02:58:38;;;;;;;5.00;4.63;;;8.70;99.90;;;;;;4924903;29;20056;-73
2022/03/14 03:01:04;;;;;;;6.70;3.63;;;8.70;99.90;;;;;;4923763;29;20047;-73
2022/03/14 03:03:30;;;;;;;5.32;4.68;;;8.70;99.90;;;;;;4923789;29;20500;-73
2022/03/14 03:05:56;;;;;;;10.00;3.92;;;8.70;99.90;;;;;;4924887;29;20879;-73
2022/03/14 03:08:22;;;;;;;10.73;4.35;;;8.60;99.90;;;;;;4923793;29;20055;-73
2022/03/14 03:10:48;;;;;;;7.07;5.63;;;8.70;99.90;;;;;;4923237;29;20084;-73
2022/03/14 03:13:15;;;;;;;9.35;5.93;;;8.60;99.90;;;;;;4927110;29;20055;-73
2022/03/14 03:15:40;;;;;;;7.10;6.50;;;8.60;99.90;;;;;;4928040;29;20044;-73
2022/03/14 03:18:06;;;;;;;9.57;7.05;;;8.60;99.90;;;;;;4926894;29;20167;-73
2022/03/14 03:20:32;;;;;;;6.72;6.07;;;8.60;99.90;;;;;;4928389;29;20130;-73
2022/03/14 03:22:57;;;;;;;7.03;4.82;;;8.60;99.90;;;;;;4927680;29;20402;-73
2022/03/14 03:25:23;;;;;;;7.43;6.07;;;8.60;99.90;;;;;;4928088;29;20091;-73
2022/03/14 03:27:49;;;;;;;7.55;6.22;;;8.60;99.90;;;;;;4928015;29;20094;-72
2022/03/14 03:30:15;;;;;;;8.32;6.85;;;8.60;99.90;;;;;;4928038;29;20044;-73
2022/03/14 03:32:41;;;;;;;9.23;6.85;;;8.50;99.90;;;;;;4928016;29;20043;-73
2022/03/14 03:35:07;;;;;;;7.28;5.90;;;8.50;99.90;;;;;;4926275;29;20091;-73
2022/03/14 03:37:33;;;;;;;6.03;5.45;;;8.60;99.90;;;;;;4927927;29;20052;-73
2022/03/14 03:39:58;;;;;;;10.00;5.88;;;8.60;99.90;;;;;;4927800;29;20155;-73
2022/03/14 03:42:24;;;;;;;10.52;7.18;;;8.50;99.90;;;;;;4927457;29;20402;-73
2022/03/14 03:44:49;;;;;;;7.15;6.45;;;8.50;99.90;;;;;;4927267;29;20103;-73
2022/03/14 03:47:15;;;;;;;13.38;6.97;;;8.50;99.90;;;;;;4927172;29;20043;-73
2022/03/14 03:49:41;;;;;;;7.75;6.75;;;8.50;99.90;;;;;;4927738;29;20056;-73
2022/03/14 03:52:07;;;;;;;6.55;6.00;;;8.50;99.90;;;;;;4958297;28;20043;-73
2022/03/14 03:54:33;;;;;;;8.18;6.38;;;8.50;99.90;;;;;;4958832;28;20051;-73
2022/03/14 03:56:59;;;;;;;12.05;6.60;;;8.50;99.90;;;;;;4927152;29;20111;-73
2022/03/14 03:59:25;;;;;;;6.57;4.97;;;8.50;99.90;;;;;;4927436;29;20048;-73
2022/03/14 04:01:50;;;;;;;7.47;5.03;;;8.50;99.90;;;;;;4926699;29;20640;-73
2022/03/14 04:04:16;;;;;;;6.60;4.93;;;8.50;99.90;;;;;;4927681;29;20054;-73
2022/03/14 04:06:42;;;;;;;6.40;5.03;;;8.50;99.90;;;;;;4926643;29;20487;-73
2022/03/14 04:09:08;;;;;;;7.88;4.95;;;8.50;99.90;;;;;;4927082;29;20090;-73
2022/03/14 04:11:35;;;;;;;5.93;5.28;;;8.50;99.90;;;;;;4925815;29;20403;-73
2022/03/14 04:14:02;;;;;;;12.27;6.00;;;8.50;99.90;;;;;;4926787;29;20048;-73
2022/03/14 04:16:28;;;;;;;11.68;5.38;;;8.50;99.90;;;;;;4926420;29;20098;-73
2022/03/14 04:18:54;;;;;;;5.63;3.25;;;8.50;99.90;;;;;;4927016;29;20578;-73
2022/03/14 04:21:20;;;;;;;3.80;2.90;;;8.50;99.90;;;;;;4927115;29;20372;-73
2022/03/14 04:23:46;;;;;;;5.55;5.07;;;8.50;99.90;;;;;;4926484;29;20122;-73
2022/03/14 04:26:12;;;;;;;3.25;2.97;;;8.50;99.90;;;;;;4927290;29;20047;-73
2022/03/14 04:28:40;;;;;;;3.15;2.92;;;8.50;99.90;;;;;;4925366;29;20051;-73
2022/03/14 04:31:07;;;;;;;5.30;4.18;;;8.50;99.90;;;;;;4926222;29;20047;-73
2022/03/14 04:33:33;;;;;;;3.72;3.40;;;8.50;99.90;;;;;;4926885;29;20040;-73
2022/03/14 04:35:58;;;;;;;3.58;3.25;;;8.50;99.90;;;;;;4926438;29;20054;-73
2022/03/14 04:38:25;;;;;;;4.15;3.85;;;8.50;99.90;;;;;;4926944;29;20863;-73
2022/03/14 04:40:51;;;;;;;5.78;4.50;;;8.50;99.90;;;;;;4925305;29;20063;-73
2022/03/14 04:43:16;;;;;;;4.50;4.03;;;8.50;99.90;;;;;;4926903;29;20044;-73
2022/03/14 04:45:42;;;;;;;3.40;2.80;;;8.50;99.90;;;;;;4926463;29;20047;-73
2022/03/14 04:48:07;;;;;;;2.88;2.58;;;8.50;99.90;;;;;;4956815;28;20070;-73
2022/03/14 04:50:35;;;;;;;2.42;2.20;;;8.50;99.90;;;;;;4957623;28;20418;-73
2022/03/14 04:53:01;;;;;;;3.53;2.88;;;8.50;99.90;;;;;;4926436;29;20111;-73
2022/03/14 04:55:26;;;;;;;6.13;2.70;;;8.50;99.90;;;;;;4926548;29;20721;-72
2022/03/14 04:57:52;;;;;;;5.78;2.92;;;8.50;99.90;;;;;;4926399;29;20094;-73
2022/03/14 05:00:18;;;;;;;2.50;2.30;;;8.50;99.90;;;;;;4925816;29;20083;-73
2022/03/14 05:02:43;;;;;;;3.83;2.67;;;8.50;99.90;;;;;;4927192;29;20269;-73
2022/03/14 05:05:13;;;;;;;5.15;2.38;;;8.60;99.90;;;;;;4926209;29;20043;-72
2022/03/14 05:07:40;;;;;;;2.45;2.33;;;8.60;99.90;;;;;;4926060;29;20044;-73
2022/03/14 05:10:10;;;;;;;1.05;1.05;;;8.60;99.90;;;;;;4925764;29;20067;-73
2022/03/14 05:12:36;;;;;;;2.08;1.88;;;8.60;99.90;;;;;;4926242;29;20075;-73
2022/03/14 05:15:03;;;;;;;2.40;1.90;;;8.60;99.90;;;;;;4926283;29;20884;-73
2022/03/14 05:17:31;;;;;;;5.13;1.63;;;8.60;99.90;;;;;;4925651;29;20119;-73
2022/03/14 05:19:57;;;;;;;1.83;1.73;;;8.70;99.90;;;;;;4924510;29;20051;-73
2022/03/14 05:22:23;;;;;;;3.38;2.10;;;8.70;99.90;;;;;;4926226;29;20040;-73
2022/03/14 05:24:49;;;;;;;1.75;1.65;;;8.60;99.90;;;;;;4925262;29;20067;-73
2022/03/14 05:27:15;;;;;;;2.60;2.40;;;8.60;99.90;;;;;;4926292;29;20040;-73
2022/03/14 05:29:40;;;;;;;1.38;1.25;;;8.60;99.90;;;;;;4926023;29;20083;-73
2022/03/14 05:32:06;;;;;;;0.93;0.93;;;8.70;99.90;;;;;;4923842;29;20040;-73
2022/03/14 05:34:33;;;;;;;1.80;1.20;;;8.70;99.90;;;;;;4924836;29;20043;-72
2022/03/14 05:36:58;;;;;;;1.42;1.42;;;8.70;99.90;;;;;;4924135;29;20040;-73
2022/03/14 05:39:24;;;;;;;1.73;1.27;;;8.70;99.90;;;;;;4925667;29;20538;-73
2022/03/14 05:41:49;;;;;;;2.10;1.85;;;8.70;99.90;;;;;;4925645;29;20040;-73
2022/03/14 05:44:15;;;;;;;1.98;1.88;;;8.70;99.90;;;;;;4917617;29;20545;-73
2022/03/14 05:46:40;;;;;;;0.88;0.88;;;8.80;99.90;;;;;;4925391;29;20040;-72
2022/03/14 05:49:06;;;;;;;1.33;1.30;;;8.80;99.90;;;;;;4925437;29;20048;-72
2022/03/14 05:51:34;;;;;;;1.42;1.38;;;8.80;99.90;;;;;;4925530;29;20055;-72
2022/03/14 05:54:00;;;;;;;1.70;1.45;;;8.80;99.90;;;;;;4925066;29;20122;-72
2022/03/14 05:56:25;;;;;;;1.83;1.73;;;8.80;99.90;;;;;;4925685;29;20530;-72
2022/03/14 05:58:51;;;;;;;1.58;1.42;;;8.80;99.90;;;;;;4925232;29;20044;-72
2022/03/14 06:01:17;;;;;;;1.40;1.30;;;8.80;99.90;;;;;;4924846;29;20044;-72
2022/03/14 06:03:42;;;;;;;1.45;1.35;;;8.80;99.90;;;;;;4924383;29;20549;-72
2022/03/14 06:06:08;;;;;;;1.48;1.13;;;8.80;99.90;;;;;;4925279;29;20549;-72
2022/03/14 06:08:33;;;;;;;1.58;1.48;;;8.80;99.90;;;;;;4923154;29;20051;-72
2022/03/14 06:10:59;;;;;;;1.10;1.00;;;8.80;99.90;;;;;;4924773;29;20059;-72
2022/03/14 06:13:25;;;;;;;1.80;1.70;;;8.90;99.90;;;;;;4924508;29;20402;-72
2022/03/14 06:15:51;;;;;;;3.13;2.80;;;8.90;99.90;;;;;;4924084;29;20044;-72
2022/03/14 06:18:17;;;;;;;1.73;1.60;;;8.80;99.90;;;;;;4923737;29;20130;-72
2022/03/14 06:20:43;;;;;;;1.60;1.50;;;8.80;99.90;;;;;;4925079;29;20080;-72
2022/03/14 06:23:09;;;;;;;1.75;1.65;;;8.90;99.90;;;;;;4923764;29;20088;-72
2022/03/14 06:25:37;;;;;;;1.35;1.25;;;8.90;99.90;;;;;;4924279;29;20051;-72
2022/03/14 06:28:03;;;;;;;1.25;1.20;;;8.90;99.90;;;;;;4925225;29;20032;-72
2022/03/14 06:30:29;;;;;;;2.30;2.10;;;8.90;99.90;;;;;;4923873;29;20411;-74
2022/03/14 06:32:54;;;;;;;2.03;1.67;;;8.90;99.90;;;;;;4924250;29;20058;-72
2022/03/14 06:35:20;;;;;;;1.98;1.85;;;8.90;99.90;;;;;;4921170;29;20043;-73
2022/03/14 06:37:46;;;;;;;1.98;1.85;;;8.90;99.90;;;;;;4907897;29;20052;-73
2022/03/14 06:40:12;;;;;;;2.65;1.77;;;8.90;99.90;;;;;;4925836;29;20071;-73
2022/03/14 06:42:40;;;;;;;1.70;1.60;;;9.00;99.90;;;;;;4920633;29;20443;-73
2022/03/14 06:45:06;;;;;;;6.65;1.92;;;9.00;99.90;;;;;;4902201;29;20047;-73
2022/03/14 06:47:32;;;;;;;4.65;2.75;;;9.00;99.90;;;;;;4922509;29;20054;-73
2022/03/14 06:49:58;;;;;;;1.67;1.58;;;9.00;99.90;;;;;;4926247;29;20134;-73
2022/03/14 06:52:24;;;;;;;1.70;1.60;;;9.00;99.90;;;;;;4927532;29;20130;-73
2022/03/14 06:54:49;;;;;;;2.72;2.45;;;9.00;99.90;;;;;;4927868;29;20499;-73
2022/03/14 06:57:15;;;;;;;4.28;1.75;;;9.00;99.90;;;;;;4926323;29;20047;-75
2022/03/14 06:59:41;;;;;;;2.30;2.13;;;9.00;99.90;;;;;;4926692;29;20053;-74
2022/03/14 07:02:07;;;;;;;2.58;2.35;;;9.00;99.90;;;;;;4925910;29;20475;-73
2022/03/14 07:04:34;;;;;;;6.10;4.00;;;9.00;99.90;;;;;;4928088;29;20051;-74
2022/03/14 07:07:01;;;;;;;2.63;2.42;;;9.00;99.90;;;;;;4928364;29;20043;-74
2022/03/14 07:09:26;;;;;;;3.47;2.45;;;9.00;99.90;;;;;;4927420;29;20099;-74
2022/03/14 07:11:52;;;;;;;5.03;2.72;;;9.10;99.90;;;;;;4926183;29;20047;-74
2022/03/14 07:14:21;;;;;;;2.58;2.33;;;9.10;99.90;;;;;;4926916;29;20118;-75
2022/03/14 07:16:48;;;;;;;19.92;2.30;;;9.10;99.90;;;;;;4924240;29;20107;-74
2022/03/14 07:19:14;;;;;;;2.97;2.78;;;9.10;99.90;;;;;;4926644;29;20102;-74
2022/03/14 07:21:39;;;;;;;3.40;3.13;;;9.10;99.90;;;;;;4926787;29;20272;-74
2022/03/14 07:24:06;;;;;;;2.78;2.58;;;9.10;99.90;;;;;;4926737;29;20066;-74
2022/03/14 07:26:31;;;;;;;3.00;2.78;;;9.10;99.90;;;;;;4926724;29;20082;-74
2022/03/14 07:28:57;;;;;;;2.13;1.88;;;9.10;99.90;;;;;;4926924;29;20079;-74
2022/03/14 07:31:24;;;;;;;4.68;2.92;;;9.10;99.90;;;;;;4925724;29;20063;-74
2022/03/14 07:33:51;;;;;;;3.10;2.45;;;9.10;99.90;;;;;;4926886;29;20099;-74
2022/03/14 07:36:18;;;;;;;3.05;2.85;;;9.10;99.90;;;;;;4926747;29;20044;-73
2022/03/14 07:38:44;;;;;;;2.65;2.45;;;9.10;99.90;;;;;;4927114;29;20380;-73
2022/03/14 07:41:10;;;;;;;3.55;3.13;;;9.10;99.90;;;;;;4927065;29;20127;-73
2022/03/14 07:43:37;;;;;;;4.28;2.78;;;9.10;99.90;;;;;;4926815;29;20051;-73
2022/03/14 07:46:03;;;;;;;3.25;3.03;;;9.10;99.90;;;;;;4909097;29;20052;-73
2022/03/14 07:48:28;;;;;;;3.40;3.08;;;9.10;99.90;;;;;;4907679;29;20062;-73
2022/03/14 07:50:54;;;;;;;4.07;3.67;;;9.10;99.90;;;;;;4906413;29;20052;-73
2022/03/14 07:53:20;;;;;;;3.17;2.83;;;9.10;99.90;;;;;;4926312;29;20043;-73
2022/03/14 07:55:46;;;;;;;3.55;3.28;;;9.10;99.90;;;;;;4926565;29;20403;-73
2022/03/14 07:58:11;;;;;;;4.65;2.67;;;9.10;99.90;;;;;;4926228;29;20075;-73
2022/03/14 08:00:37;;;;;;;9.10;3.83;;;9.10;99.90;;;;;;4926003;29;20363;-73
2022/03/14 08:03:03;;;;;;;3.25;2.67;;;9.10;99.90;;;;;;4924336;29;20084;-73
2022/03/14 08:05:28;;;;;;;3.80;3.50;;;9.10;99.90;;;;;;4926802;29;20043;-73
2022/03/14 08:07:55;;;;;;;3.55;3.03;;;9.10;99.90;;;;;;4925500;29;20036;-73
2022/03/14 08:10:21;;;;;;;5.30;3.08;;;9.10;99.90;;;;;;4926352;29;20103;-73
2022/03/14 08:12:49;;;;;;;3.25;3.05;;;9.10;99.90;;;;;;4924848;29;20058;-73
2022/03/14 08:15:32;;;;;;;4.55;4.00;;;9.10;99.90;;;;;;4925491;29;20421;-74
2022/03/14 08:17:58;;;;;;;;;;;9.10;99.90;;;;;;4926681;29;20071;-72
2022/03/14 08:20:26;;;;;;;3.97;3.55;;;9.20;99.90;;;;;;4926141;29;19978;-73
2022/03/14 08:22:53;;;;;;;5.25;4.55;;;9.10;99.90;;;;;;4924770;29;20460;-73
2022/03/14 08:25:19;;;;;;;5.78;3.90;;;9.20;99.90;;;;;;4925974;29;20450;-73
2022/03/14 08:27:45;;;;;;;7.55;5.80;;;9.10;99.90;;;;;;4925635;29;20440;-74
2022/03/14 08:30:11;;;;;;;11.05;5.40;;;9.10;99.90;;;;;;4925304;29;20040;-73
2022/03/14 08:32:39;;;;;;;7.05;4.82;;;9.20;99.90;;;;;;4920687;29;20578;-73
2022/03/14 08:35:07;;;;;;;4.65;3.72;;;9.20;99.90;;;;;;4926006;29;20494;-73
2022/03/14 08:37:36;;;;;;;3.67;3.08;;;9.20;99.90;;;;;;4926524;29;20040;-74
2022/03/14 08:40:04;;;;;;;7.35;5.78;;;9.20;99.90;;;;;;4925995;29;20064;-73
2022/03/14 08:42:30;;;;;;;6.75;5.15;;;9.20;99.90;;;;;;4926453;29;20095;-74
2022/03/14 08:44:56;;;;;;;8.07;6.53;;;9.20;99.90;;;;;;4921134;29;20040;-74
2022/03/14 08:47:21;;;;;;;15.30;8.73;;;9.10;99.90;;;;;;4925974;29;20262;-74
2022/03/14 08:49:47;;;;;;;11.30;7.10;;;9.20;99.90;;;;;;4925827;29;20054;-74
2022/03/14 08:52:12;;;;;;;8.63;6.75;;;9.10;99.90;;;;;;4926010;29;20154;-73
2022/03/14 08:54:38;;;;;;;8.48;6.13;;;9.20;99.90;;;;;;4926080;29;20550;-73
2022/03/14 08:57:04;;;;;;;12.35;8.85;;;9.20;99.90;;;;;;4924954;29;20040;-73
2022/03/14 08:59:30;;;;;;;17.30;7.90;;;9.10;99.90;;;;;;4924568;29;20111;-74
2022/03/14 09:01:55;;;;;;;10.13;6.78;;;9.10;99.90;;;;;;4925428;29;20044;-73
2022/03/14 09:04:21;;;;;;;14.45;7.32;;;9.10;99.90;;;;;;4925357;29;20591;-73
2022/03/14 09:06:47;;;;;;;9.93;7.25;;;9.10;99.90;;;;;;4925248;29;20557;-73
2022/03/14 09:09:12;;;;;;;9.57;6.28;;;9.10;99.90;;;;;;4925842;29;20058;-73
2022/03/14 09:11:39;;;;;;;10.13;6.90;;;9.10;99.90;;;;;;4924234;29;20427;-73
2022/03/14 09:14:04;;;;;;;6.88;4.35;;;9.10;99.90;;;;;;4925241;29;20036;-72
2022/03/14 09:16:31;;;;;;;8.63;7.45;;;9.10;99.90;;;;;;4924598;29;20522;-73
2022/03/14 09:18:56;;;;;;;6.13;5.50;;;9.10;99.90;;;;;;4923354;29;20111;-73
2022/03/14 09:21:23;;;;;;;11.77;7.75;;;9.10;99.90;;;;;;4925193;29;20094;-73
2022/03/14 09:23:50;;;;;;;7.57;6.88;;;9.10;99.90;;;;;;4923836;29;20436;-73
2022/03/14 09:26:15;;;;;;;12.35;5.63;;;9.10;99.90;;;;;;4924020;29;20079;-73
2022/03/14 09:28:44;;;;;;;11.07;6.25;;;9.10;99.90;;;;;;4925687;29;20069;-73
2022/03/14 09:31:11;;;;;;;8.45;5.03;;;9.10;99.90;;;;;;4924344;29;20152;-73
2022/03/14 09:33:37;;;;;;;10.57;5.30;;;9.10;99.90;;;;;;4925188;29;20044;-80
2022/03/14 09:36:03;;;;;;;8.57;4.18;;;9.10;99.90;;;;;;4915003;29;20419;-79
2022/03/14 09:38:29;;;;;;;5.40;4.95;;;9.10;99.90;;;;;;4925041;29;20044;-78
2022/03/14 09:40:58;;;;;;;8.18;5.68;;;9.10;99.90;;;;;;4924338;29;20052;-78
2022/03/14 09:43:25;;;;;;;5.63;5.13;;;9.20;99.90;;;;;;4922971;29;20143;-81
2022/03/14 09:45:52;;;;;;;4.97;2.85;;;9.20;99.90;;;;;;4922259;29;20123;-77
2022/03/14 09:48:18;;;;;;;2.42;2.15;;;9.30;99.90;;;;;;4924491;29;20039;-78
2022/03/14 09:50:45;;;;;;;8.25;3.83;;;9.30;99.90;;;;;;4924451;29;20232;-81
2022/03/14 09:53:17;;;;;;;1.50;1.40;;;9.40;99.90;;;;;;4925047;29;20055;-80
2022/03/14 09:55:45;;;;;;;7.63;2.83;;;9.40;99.90;;;;;;4924597;29;20051;-81
2022/03/14 09:58:12;;;;;;;4.10;2.67;;;9.40;99.90;;;;;;4924333;29;20043;-80
2022/03/14 10:00:38;;;;;;;2.92;2.08;;;9.40;99.90;;;;;;4922772;29;20269;-80
2022/03/14 10:03:04;;;;;;;2.25;2.13;;;9.40;99.90;;;;;;4924310;29;20044;-79
2022/03/14 10:05:30;;;;;;;2.35;2.15;;;9.50;99.90;;;;;;4924181;29;20324;-83
2022/03/14 10:07:56;;;;;;;8.48;3.22;;;9.50;99.90;;;;;;4922325;29;20078;-79
2022/03/14 10:10:22;;;;;;;3.63;3.20;;;9.50;99.90;;;;;;4922988;29;20587;-81
2022/03/14 10:12:52;;;;;;;3.95;2.92;;;9.50;99.90;;;;;;4924365;29;20524;-79
2022/03/14 10:15:19;;;;;;;5.80;3.42;;;9.60;99.90;;;;;;4922870;29;20076;-79
2022/03/14 10:17:45;;;;;;;6.05;2.03;;;9.60;99.90;;;;;;4923977;29;20051;-77
2022/03/14 10:20:11;;;;;;;4.47;1.60;;;9.60;99.90;;;;;;4924042;29;20050;-78
2022/03/14 10:22:39;;;;;;;3.05;1.92;;;9.60;99.90;;;;;;4924601;29;20477;-81
2022/03/14 10:25:10;;;;;;;3.95;3.47;;;9.60;99.90;;;;;;4927910;29;20061;-80
2022/03/14 10:27:43;;;;;;;3.72;3.42;;;9.60;99.90;;;;;;4927911;29;20122;-80
2022/03/14 10:30:22;;;;;;;;;;;9.60;99.90;;;;;;4927485;29;20284;-79
2022/03/14 10:32:48;;;;;;;13.13;3.22;;;9.60;99.90;;;;;;4926311;29;19933;-80
2022/03/14 10:35:22;;;;;;;9.45;2.65;;;9.60;99.90;;;;;;4926525;29;20052;-79
2022/03/14 10:37:58;;;;;;;8.25;3.90;;;9.70;99.90;;;;;;4926099;29;20039;-79
2022/03/14 10:40:32;;;;;;;14.18;3.38;;;9.70;99.90;;;;;;4927521;29;20048;-76
2022/03/14 10:42:59;;;;;;;2.58;2.38;;;9.60;99.90;;;;;;4927838;29;20371;-76
2022/03/14 10:45:24;;;;;;;3.53;3.33;;;9.70;99.90;;;;;;4921173;29;20055;-76
2022/03/14 10:47:57;;;;;;;5.20;2.83;;;9.70;99.90;;;;;;4926793;29;20047;-79
2022/03/14 10:50:34;;;;;;;4.53;3.00;;;9.80;99.90;;;;;;4925909;29;20131;-79
2022/03/14 10:53:16;;;;;;;3.00;2.80;;;9.80;99.90;;;;;;4922920;29;20053;-77
2022/03/14 10:55:45;;;;;;;3.50;3.20;;;9.80;99.90;;;;;;4926372;29;20067;-77
2022/03/14 10:58:19;;;;;;;14.52;3.35;;;9.80;99.90;;;;;;4928017;28;20132;-79
2022/03/14 11:00:46;;;;;;;2.22;2.13;;;9.80;99.90;;;;;;4922988;29;20131;-75
2022/03/14 11:03:11;;;;;;;10.70;3.63;;;9.80;99.90;;;;;;4926959;29;20409;-74
2022/03/14 11:05:44;;;;;;;3.97;3.63;;;9.90;99.90;;;;;;4925413;29;20052;-74
2022/03/14 11:08:36;;;;;;;6.05;4.65;;;9.90;99.90;;;;;;4941956;29;20418;-74
2022/03/14 11:11:06;;;;;;;15.40;5.22;;;9.90;99.90;;;;;;4946361;28;20051;-74
2022/03/14 11:13:37;;;;;;;7.43;4.78;;;9.90;99.90;;;;;;4927092;29;20087;-74
2022/03/14 11:16:02;;;;;;;5.32;4.55;;;9.90;99.90;;;;;;4926377;29;20055;-74
2022/03/14 11:18:29;;;;;;;5.20;4.53;;;9.90;99.90;;;;;;4926958;29;20446;-74
2022/03/14 11:20:57;;;;;;;8.68;4.80;;;10.00;99.90;;;;;;4926794;29;20387;-74
2022/03/14 11:23:24;;;;;;;8.05;4.50;;;10.00;99.90;;;;;;4927418;29;20048;-74
2022/03/14 11:25:50;;;;;;;5.45;4.32;;;10.00;99.90;;;;;;4926349;29;20055;-74
2022/03/14 11:28:20;;;;;;;6.70;4.38;;;10.00;99.90;;;;;;4927184;29;20250;-74
2022/03/14 11:31:00;;;;;;;13.88;4.97;;;10.00;99.90;;;;;;4925132;29;20648;-74
2022/03/14 11:33:29;;;;;;;4.72;3.90;;;10.00;99.90;;;;;;4926837;29;20083;-74
2022/03/14 11:35:54;;;;;;;8.13;4.25;;;10.00;99.90;;;;;;4926708;29;20043;-74
2022/03/14 11:38:20;;;;;;;4.97;4.40;;;10.10;99.90;;;;;;4926785;29;20043;-74
2022/03/14 11:40:48;;;;;;;5.25;4.25;;;10.10;99.90;;;;;;4926520;29;20036;-74
2022/03/14 11:43:13;;;;;;;7.60;4.00;;;10.10;99.90;;;;;;4927499;29;20099;-74
2022/03/14 11:45:40;;;;;;;3.35;2.75;;;10.10;99.90;;;;;;4918708;29;20044;-74
2022/03/14 11:48:06;;;;;;;10.70;3.28;;;10.10;99.90;;;;;;4925199;29;20044;-74
2022/03/14 11:50:43;;;;;;;4.95;3.28;;;10.20;99.90;;;;;;4926830;29;20091;-74
2022/03/14 11:53:09;;;;;;;5.13;3.72;;;10.20;99.90;;;;;;4925222;29;20435;-74
2022/03/14 11:55:34;;;;;;;7.43;2.75;;;10.20;99.90;;;;;;4926502;29;20142;-74
2022/03/14 11:58:00;;;;;;;4.80;3.67;;;10.20;99.90;;;;;;4925411;29;20103;-74
2022/03/14 12:00:30;;;;;;;10.38;3.03;;;10.30;99.90;;;;;;4925540;29;20071;-74
2022/03/14 12:03:07;;;;;;;6.75;3.75;;;10.30;99.90;;;;;;4920432;29;20066;-74
2022/03/14 12:05:32;;;;;;;3.28;2.95;;;10.30;99.90;;;;;;4917516;29;20044;-74
2022/03/14 12:08:30;;;;;;;7.22;4.28;;;10.30;99.90;;;;;;4914612;29;20062;-74
2022/03/14 12:11:15;;;;;;;12.18;4.72;;;10.40;99.90;;;;;;4917405;29;20428;-74
2022/03/14 12:13:43;;;;;;;5.00;3.22;;;10.40;99.90;;;;;;4916791;29;21099;-74
2022/03/14 12:16:37;;;;;;;5.13;3.35;;;10.40;99.90;;;;;;4922607;29;20102;-74
2022/03/14 12:19:27;;;;;;;5.13;3.38;;;10.40;99.90;;;;;;4925804;29;20074;-74
2022/03/14 12:21:52;;;;;;;3.22;3.03;;;10.40;99.90;;;;;;4924636;29;20043;-74
2022/03/14 12:24:19;;;;;;;6.93;3.83;;;10.50;99.90;;;;;;4930312;29;20040;-74
2022/03/14 12:26:45;;;;;;;5.47;2.97;;;10.50;99.90;;;;;;4924250;29;20118;-74
2022/03/14 12:29:32;;;;;;;10.20;2.83;;;10.50;99.90;;;;;;4941546;28;20027;-74
2022/03/14 12:32:33;;;;;;;2.88;2.47;;;10.50;99.90;;;;;;4924308;29;20043;-74
2022/03/14 12:35:06;;;;;;;4.28;3.13;;;10.50;99.90;;;;;;4923151;29;20039;-74
2022/03/14 12:37:43;;;;;;;;;;;10.60;99.90;;;;;;4923063;29;20063;-74
2022/03/14 12:40:14;;;;;;;6.15;2.15;;;10.60;99.90;;;;;;4921322;29;19931;-74
2022/03/14 12:42:46;;;;;;;9.23;3.08;;;10.70;99.90;;;;;;4931796;28;20042;-74
2022/03/14 12:45:15;;;;;;;4.40;2.75;;;10.70;99.90;;;;;;4925285;29;20040;-74
2022/03/14 12:48:05;;;;;;;5.18;3.67;;;10.70;99.90;;;;;;4923271;29;20052;-74
2022/03/14 12:50:43;;;;;;;6.40;4.07;;;10.80;99.90;;;;;;4923732;29;20325;-74
2022/03/14 12:53:29;;;;;;;4.63;2.63;;;10.80;99.90;;;;;;4920902;29;20073;-74
2022/03/14 12:55:59;;;;;;;6.32;3.20;;;10.80;99.90;;;;;;4924387;29;20074;-74
2022/03/14 12:58:26;;;;;;;3.60;3.30;;;10.90;99.90;;;;;;4926072;29;20048;-74